KLM1805 EHAM-EHRD
Flight info
| Callsign | KLM1805 |
|---|---|
| Flight time | 0h 14m |
| Altitude | 6000 |
| Route | KUDAD DCT RTM |
| Aircraft | A20N/M-SDE2E3FGHIRWXY/LB1 |
Departure
| Time | 2026-04-27 18:36 |
|---|---|
| Airport | Amsterdam Airport Schiphol (EHAM) |
Arrival
| Time | 2026-04-27 18:51 |
|---|---|
| Airport | Rotterdam The Hague Airport (EHRD) |
| Time | Latitude | Longitude | Altitude | Speed | Heading |
|---|---|---|---|---|---|
| 2026-04-27 18:16 | 52.31132 | 4.74440 | -3 ft | 0 kts | 274° |
| 2026-04-27 18:25 | 52.31131 | 4.74443 | -3 ft | 4 kts | 274° |
| 2026-04-27 18:25 | 52.31129 | 4.74485 | -3 ft | 4 kts | 274° |
| 2026-04-27 18:26 | 52.31127 | 4.74528 | -3 ft | 4 kts | 274° |
| 2026-04-27 18:26 | 52.31126 | 4.74570 | -3 ft | 4 kts | 285° |
| 2026-04-27 18:26 | 52.31120 | 4.74584 | -3 ft | 0 kts | 343° |
| 2026-04-27 18:27 | 52.31128 | 4.74580 | -3 ft | 0 kts | 341° |
| 2026-04-27 18:27 | 52.31132 | 4.74578 | -3 ft | 0 kts | 341° |
| 2026-04-27 18:28 | 52.31143 | 4.74574 | -3 ft | 4 kts | 347° |
| 2026-04-27 18:29 | 52.31182 | 4.74568 | -3 ft | 8 kts | 359° |
| 2026-04-27 18:29 | 52.31246 | 4.74576 | -3 ft | 11 kts | 9° |
| 2026-04-27 18:29 | 52.31326 | 4.74587 | -3 ft | 13 kts | 2° |
| 2026-04-27 18:29 | 52.31394 | 4.74511 | -3 ft | 14 kts | 282° |
| 2026-04-27 18:30 | 52.31392 | 4.74344 | -3 ft | 15 kts | 280° |
| 2026-04-27 18:30 | 52.31478 | 4.74283 | -3 ft | 16 kts | 4° |
| 2026-04-27 18:30 | 52.31592 | 4.74298 | 0 ft | 16 kts | 4° |
| 2026-04-27 18:30 | 52.31708 | 4.74309 | -1 ft | 18 kts | 3° |
| 2026-04-27 18:31 | 52.31855 | 4.74322 | -6 ft | 23 kts | 3° |
| 2026-04-27 18:31 | 52.32010 | 4.74311 | -6 ft | 20 kts | 327° |
| 2026-04-27 18:31 | 52.32035 | 4.74091 | -6 ft | 22 kts | 272° |
| 2026-04-27 18:31 | 52.32043 | 4.73838 | -1 ft | 22 kts | 273° |
| 2026-04-27 18:32 | 52.32055 | 4.73573 | 1 ft | 25 kts | 275° |
| 2026-04-27 18:32 | 52.32110 | 4.73311 | 0 ft | 23 kts | 328° |
| 2026-04-27 18:32 | 52.32156 | 4.73258 | -1 ft | 8 kts | 323° |
| 2026-04-27 18:32 | 52.32214 | 4.73181 | -1 ft | 13 kts | 319° |
| 2026-04-27 18:33 | 52.32297 | 4.73062 | -4 ft | 18 kts | 318° |
| 2026-04-27 18:33 | 52.32399 | 4.72917 | -3 ft | 21 kts | 320° |
| 2026-04-27 18:33 | 52.32513 | 4.72756 | -4 ft | 23 kts | 319° |
| 2026-04-27 18:33 | 52.32641 | 4.72576 | -2 ft | 25 kts | 319° |
| 2026-04-27 18:34 | 52.32759 | 4.72369 | -1 ft | 26 kts | 311° |
| 2026-04-27 18:34 | 52.32880 | 4.72142 | -3 ft | 28 kts | 311° |
| 2026-04-27 18:34 | 52.33013 | 4.71896 | -3 ft | 29 kts | 312° |
| 2026-04-27 18:34 | 52.33145 | 4.71638 | -1 ft | 26 kts | 298° |
| 2026-04-27 18:35 | 52.33130 | 4.71478 | -1 ft | 10 kts | 259° |
| 2026-04-27 18:35 | 52.33159 | 4.71370 | -1 ft | 11 kts | 316° |
| 2026-04-27 18:35 | 52.33222 | 4.71261 | -2 ft | 15 kts | 310° |
| 2026-04-27 18:35 | 52.33305 | 4.71102 | -5 ft | 20 kts | 311° |
| 2026-04-27 18:36 | 52.33419 | 4.70955 | -4 ft | 22 kts | 345° |
| 2026-04-27 18:36 | 52.33680 | 4.70964 | 2 ft | 73 kts | 2° |
| 2026-04-27 18:36 | 52.34479 | 4.71013 | 99 ft | 143 kts | 3° |
| 2026-04-27 18:36 | 52.35532 | 4.71059 | 900 ft | 156 kts | 2° |
| 2026-04-27 18:37 | 52.36574 | 4.70415 | 1906 ft | 174 kts | 322° |
| 2026-04-27 18:37 | 52.37216 | 4.68576 | 2681 ft | 207 kts | 285° |
| 2026-04-27 18:37 | 52.37125 | 4.65960 | 3011 ft | 259 kts | 252° |
| 2026-04-27 18:37 | 52.36270 | 4.63088 | 3036 ft | 314 kts | 242° |
| 2026-04-27 18:38 | 52.35168 | 4.59760 | 2996 ft | 336 kts | 242° |
| 2026-04-27 18:38 | 52.34090 | 4.56495 | 2990 ft | 316 kts | 242° |
| 2026-04-27 18:38 | 52.33077 | 4.53444 | 3001 ft | 295 kts | 242° |
| 2026-04-27 18:38 | 52.32122 | 4.50592 | 3003 ft | 277 kts | 242° |
| 2026-04-27 18:39 | 52.31213 | 4.47907 | 3000 ft | 267 kts | 242° |
| 2026-04-27 18:39 | 52.30314 | 4.45238 | 2995 ft | 268 kts | 242° |
| 2026-04-27 18:39 | 52.29485 | 4.42520 | 2991 ft | 265 kts | 255° |
| 2026-04-27 18:39 | 52.29298 | 4.39548 | 3001 ft | 263 kts | 272° |
| 2026-04-27 18:40 | 52.29315 | 4.36565 | 2999 ft | 264 kts | 272° |
| 2026-04-27 18:40 | 52.29180 | 4.33567 | 3004 ft | 265 kts | 255° |
| 2026-04-27 18:40 | 52.28299 | 4.30983 | 3006 ft | 269 kts | 227° |
| 2026-04-27 18:40 | 52.26736 | 4.29286 | 3013 ft | 272 kts | 203° |
| 2026-04-27 18:41 | 52.25006 | 4.28111 | 3005 ft | 267 kts | 202° |
| 2026-04-27 18:41 | 52.23268 | 4.26932 | 3007 ft | 270 kts | 202° |
| 2026-04-27 18:41 | 52.21549 | 4.25765 | 3001 ft | 267 kts | 202° |
| 2026-04-27 18:41 | 52.19821 | 4.24589 | 2997 ft | 269 kts | 202° |
| 2026-04-27 18:42 | 52.18086 | 4.23415 | 2996 ft | 269 kts | 202° |
| 2026-04-27 18:42 | 52.16940 | 4.22642 | 2997 ft | 269 kts | 202° |
| 2026-04-27 18:42 | 52.14643 | 4.21098 | 2996 ft | 268 kts | 202° |
| 2026-04-27 18:42 | 52.12923 | 4.19951 | 2996 ft | 269 kts | 202° |
| 2026-04-27 18:43 | 52.11194 | 4.18797 | 2997 ft | 266 kts | 202° |
| 2026-04-27 18:43 | 52.09486 | 4.17655 | 2996 ft | 267 kts | 202° |
| 2026-04-27 18:43 | 52.07751 | 4.16495 | 2997 ft | 269 kts | 202° |
| 2026-04-27 18:43 | 52.06027 | 4.15336 | 3001 ft | 269 kts | 202° |
| 2026-04-27 18:44 | 52.04212 | 4.14638 | 2993 ft | 267 kts | 183° |
| 2026-04-27 18:44 | 52.02353 | 4.14463 | 2691 ft | 268 kts | 182° |
| 2026-04-27 18:44 | 52.00519 | 4.14298 | 2531 ft | 259 kts | 182° |
| 2026-04-27 18:44 | 51.98762 | 4.14119 | 2327 ft | 253 kts | 182° |
| 2026-04-27 18:45 | 51.97018 | 4.13929 | 2077 ft | 249 kts | 182° |
| 2026-04-27 18:45 | 51.95283 | 4.13732 | 2001 ft | 250 kts | 182° |
| 2026-04-27 18:45 | 51.93592 | 4.13550 | 1995 ft | 237 kts | 182° |
| 2026-04-27 18:45 | 51.91995 | 4.13473 | 1991 ft | 221 kts | 168° |
| 2026-04-27 18:46 | 51.90613 | 4.14285 | 1988 ft | 204 kts | 152° |
| 2026-04-27 18:46 | 51.89313 | 4.15269 | 1996 ft | 210 kts | 152° |
| 2026-04-27 18:46 | 51.87992 | 4.16239 | 1996 ft | 207 kts | 152° |
| 2026-04-27 18:46 | 51.86819 | 4.17510 | 1997 ft | 201 kts | 124° |
| 2026-04-27 18:47 | 51.86317 | 4.19569 | 2003 ft | 199 kts | 94° |
| 2026-04-27 18:47 | 51.86198 | 4.21788 | 1999 ft | 197 kts | 92° |
| 2026-04-27 18:47 | 51.86134 | 4.23258 | 1996 ft | 197 kts | 89° |
| 2026-04-27 18:47 | 51.86495 | 4.25330 | 2000 ft | 194 kts | 53° |
| 2026-04-27 18:48 | 51.87532 | 4.26727 | 1999 ft | 196 kts | 33° |
| 2026-04-27 18:48 | 51.88697 | 4.27885 | 1998 ft | 196 kts | 33° |
| 2026-04-27 18:48 | 51.89650 | 4.29398 | 2011 ft | 195 kts | 53° |
| 2026-04-27 18:48 | 51.90469 | 4.31162 | 1795 ft | 195 kts | 53° |
| 2026-04-27 18:49 | 51.91266 | 4.32994 | 1514 ft | 213 kts | 55° |
| 2026-04-27 18:49 | 51.92096 | 4.35037 | 1212 ft | 213 kts | 56° |
| 2026-04-27 18:49 | 51.92859 | 4.36940 | 925 ft | 194 kts | 56° |
| 2026-04-27 18:49 | 51.93539 | 4.38656 | 688 ft | 168 kts | 56° |
| 2026-04-27 18:50 | 51.94145 | 4.40156 | 433 ft | 146 kts | 57° |
| 2026-04-27 18:50 | 51.94656 | 4.41425 | 278 ft | 127 kts | 55° |
| 2026-04-27 18:50 | 51.95130 | 4.42619 | 108 ft | 122 kts | 57° |
| 2026-04-27 18:50 | 51.95572 | 4.43735 | 9 ft | 111 kts | 57° |
| 2026-04-27 18:51 | 51.95880 | 4.44504 | -2 ft | 39 kts | 57° |
| 2026-04-27 18:51 | 51.95911 | 4.44601 | -2 ft | 4 kts | 78° |
| 2026-04-27 18:51 | 51.95875 | 4.44712 | 0 ft | 7 kts | 153° |
| 2026-04-27 18:51 | 51.95823 | 4.44757 | 0 ft | 18 kts | 152° |
| 2026-04-27 18:52 | 51.95772 | 4.44729 | 0 ft | 14 kts | 236° |
| 2026-04-27 18:52 | 51.95676 | 4.44488 | 0 ft | 28 kts | 237° |
| 2026-04-27 18:52 | 51.95614 | 4.44332 | 0 ft | 18 kts | 237° |
| 2026-04-27 18:53 | 51.95450 | 4.43920 | 0 ft | 23 kts | 237° |
| 2026-04-27 18:53 | 51.95357 | 4.43686 | 0 ft | 23 kts | 237° |
| 2026-04-27 18:53 | 51.95291 | 4.43521 | 0 ft | 0 kts | 237° |
| 2026-04-27 18:53 | 51.95283 | 4.43501 | 0 ft | 4 kts | 238° |
| 2026-04-27 18:54 | 51.95257 | 4.43443 | 0 ft | 6 kts | 217° |
| 2026-04-27 18:54 | 51.95214 | 4.43465 | 0 ft | 9 kts | 149° |
| 2026-04-27 18:54 | 51.95166 | 4.43483 | 0 ft | 7 kts | 205° |
| 2026-04-27 18:54 | 51.95135 | 4.43421 | 0 ft | 0 kts | 237° |
| 2026-04-27 18:55 | 51.95132 | 4.43397 | 0 ft | 4 kts | 266° |
| 2026-04-27 18:55 | 51.95147 | 4.43369 | 0 ft | 4 kts | 327° |
| 2026-04-27 18:55 | 51.95171 | 4.43344 | 0 ft | 0 kts | 328° |
| 2026-04-27 18:55 | 51.95169 | 4.43347 | 0 ft | 0 kts | 328° |
| 2026-04-27 18:56 | 51.95169 | 4.43346 | 0 ft | 0 kts | 328° |